sensor_id;sensor_type;location;lat;lon;timestamp;P1;durP1;ratioP1;P2;durP2;ratioP2
10410;SDS011;5251;52.112;8.606;2023-03-03T00:00:51;34.78;;;20.33;;
10410;SDS011;5251;52.112;8.606;2023-03-03T00:03:18;35.05;;;19.83;;
10410;SDS011;5251;52.112;8.606;2023-03-03T00:05:46;37.58;;;21.55;;
10410;SDS011;5251;52.112;8.606;2023-03-03T00:08:11;36.00;;;20.63;;
10410;SDS011;5251;52.112;8.606;2023-03-03T00:10:37;36.65;;;21.70;;
10410;SDS011;5251;52.112;8.606;2023-03-03T00:13:03;35.92;;;20.42;;
10410;SDS011;5251;52.112;8.606;2023-03-03T00:15:38;34.85;;;20.55;;
10410;SDS011;5251;52.112;8.606;2023-03-03T00:18:05;37.42;;;21.55;;
10410;SDS011;5251;52.112;8.606;2023-03-03T00:20:47;38.42;;;21.33;;
10410;SDS011;5251;52.112;8.606;2023-03-03T00:23:22;37.67;;;21.48;;
10410;SDS011;5251;52.112;8.606;2023-03-03T00:25:55;32.38;;;18.80;;
10410;SDS011;5251;52.112;8.606;2023-03-03T00:28:36;29.58;;;17.08;;
10410;SDS011;5251;52.112;8.606;2023-03-03T00:31:14;29.52;;;17.45;;
10410;SDS011;5251;52.112;8.606;2023-03-03T00:33:44;28.98;;;17.05;;
10410;SDS011;5251;52.112;8.606;2023-03-03T00:39:18;25.90;;;14.75;;
10410;SDS011;5251;52.112;8.606;2023-03-03T00:41:44;25.27;;;15.18;;
10410;SDS011;5251;52.112;8.606;2023-03-03T00:50:43;28.67;;;17.70;;
10410;SDS011;5251;52.112;8.606;2023-03-03T00:55:27;29.95;;;18.17;;
10410;SDS011;5251;52.112;8.606;2023-03-03T00:57:53;30.48;;;17.10;;
10410;SDS011;5251;52.112;8.606;2023-03-03T01:00:19;29.38;;;17.40;;
10410;SDS011;5251;52.112;8.606;2023-03-03T01:02:45;27.30;;;17.00;;
10410;SDS011;5251;52.112;8.606;2023-03-03T01:05:12;27.23;;;15.73;;
10410;SDS011;5251;52.112;8.606;2023-03-03T01:07:39;24.65;;;14.75;;
10410;SDS011;5251;52.112;8.606;2023-03-03T01:10:05;26.70;;;16.08;;
10410;SDS011;5251;52.112;8.606;2023-03-03T01:12:31;26.25;;;15.90;;
10410;SDS011;5251;52.112;8.606;2023-03-03T01:14:57;28.17;;;16.27;;
10410;SDS011;5251;52.112;8.606;2023-03-03T01:17:22;29.13;;;16.70;;
10410;SDS011;5251;52.112;8.606;2023-03-03T01:19:48;28.75;;;16.88;;
10410;SDS011;5251;52.112;8.606;2023-03-03T01:22:14;25.63;;;16.45;;
10410;SDS011;5251;52.112;8.606;2023-03-03T01:24:39;28.55;;;16.13;;
10410;SDS011;5251;52.112;8.606;2023-03-03T01:27:05;24.55;;;14.88;;
10410;SDS011;5251;52.112;8.606;2023-03-03T01:29:30;23.80;;;14.10;;
10410;SDS011;5251;52.112;8.606;2023-03-03T01:31:56;26.23;;;15.95;;
10410;SDS011;5251;52.112;8.606;2023-03-03T01:34:22;27.70;;;16.85;;
10410;SDS011;5251;52.112;8.606;2023-03-03T01:36:48;27.45;;;16.42;;
10410;SDS011;5251;52.112;8.606;2023-03-03T01:39:13;28.65;;;17.00;;
10410;SDS011;5251;52.112;8.606;2023-03-03T01:41:39;27.60;;;16.05;;
10410;SDS011;5251;52.112;8.606;2023-03-03T01:44:05;26.13;;;14.95;;
10410;SDS011;5251;52.112;8.606;2023-03-03T01:49:00;28.95;;;16.55;;
10410;SDS011;5251;52.112;8.606;2023-03-03T01:51:33;28.17;;;16.38;;
10410;SDS011;5251;52.112;8.606;2023-03-03T01:54:02;28.35;;;16.08;;
10410;SDS011;5251;52.112;8.606;2023-03-03T01:56:30;27.55;;;17.02;;
10410;SDS011;5251;52.112;8.606;2023-03-03T01:59:10;28.77;;;16.73;;
10410;SDS011;5251;52.112;8.606;2023-03-03T02:01:40;33.40;;;18.65;;
10410;SDS011;5251;52.112;8.606;2023-03-03T02:04:07;33.15;;;19.13;;
10410;SDS011;5251;52.112;8.606;2023-03-03T02:06:34;37.78;;;19.88;;
10410;SDS011;5251;52.112;8.606;2023-03-03T02:11:51;34.30;;;18.17;;
10410;SDS011;5251;52.112;8.606;2023-03-03T02:14:23;33.83;;;18.85;;
10410;SDS011;5251;52.112;8.606;2023-03-03T02:16:49;33.90;;;18.50;;
10410;SDS011;5251;52.112;8.606;2023-03-03T02:22:10;31.05;;;17.05;;
10410;SDS011;5251;52.112;8.606;2023-03-03T02:24:42;31.65;;;16.65;;
10410;SDS011;5251;52.112;8.606;2023-03-03T02:27:14;31.40;;;16.33;;
10410;SDS011;5251;52.112;8.606;2023-03-03T02:29:39;30.80;;;17.45;;
10410;SDS011;5251;52.112;8.606;2023-03-03T02:32:05;32.63;;;16.55;;
10410;SDS011;5251;52.112;8.606;2023-03-03T02:34:41;34.88;;;17.92;;
10410;SDS011;5251;52.112;8.606;2023-03-03T02:37:17;34.47;;;16.67;;
10410;SDS011;5251;52.112;8.606;2023-03-03T02:39:44;33.88;;;17.35;;
10410;SDS011;5251;52.112;8.606;2023-03-03T02:42:20;36.65;;;18.38;;
10410;SDS011;5251;52.112;8.606;2023-03-03T02:44:51;37.05;;;17.45;;
10410;SDS011;5251;52.112;8.606;2023-03-03T02:47:17;33.10;;;16.38;;
10410;SDS011;5251;52.112;8.606;2023-03-03T02:49:42;36.58;;;17.75;;
10410;SDS011;5251;52.112;8.606;2023-03-03T02:52:09;34.90;;;17.85;;
10410;SDS011;5251;52.112;8.606;2023-03-03T02:54:35;34.58;;;17.50;;
10410;SDS011;5251;52.112;8.606;2023-03-03T02:57:02;35.30;;;16.45;;
10410;SDS011;5251;52.112;8.606;2023-03-03T02:59:29;41.65;;;18.92;;
10410;SDS011;5251;52.112;8.606;2023-03-03T03:01:54;38.45;;;18.67;;
10410;SDS011;5251;52.112;8.606;2023-03-03T03:04:21;39.17;;;18.83;;
10410;SDS011;5251;52.112;8.606;2023-03-03T03:06:51;38.40;;;17.77;;
10410;SDS011;5251;52.112;8.606;2023-03-03T03:09:18;34.35;;;17.70;;
10410;SDS011;5251;52.112;8.606;2023-03-03T03:11:45;37.75;;;17.75;;
10410;SDS011;5251;52.112;8.606;2023-03-03T03:14:12;37.13;;;18.13;;
10410;SDS011;5251;52.112;8.606;2023-03-03T03:16:38;42.55;;;19.10;;
10410;SDS011;5251;52.112;8.606;2023-03-03T03:19:04;37.20;;;16.55;;
10410;SDS011;5251;52.112;8.606;2023-03-03T03:21:30;38.97;;;17.95;;
10410;SDS011;5251;52.112;8.606;2023-03-03T03:23:56;35.92;;;17.30;;
10410;SDS011;5251;52.112;8.606;2023-03-03T03:26:22;38.15;;;18.27;;
10410;SDS011;5251;52.112;8.606;2023-03-03T03:28:48;36.63;;;17.73;;
10410;SDS011;5251;52.112;8.606;2023-03-03T03:31:15;40.85;;;17.88;;
10410;SDS011;5251;52.112;8.606;2023-03-03T03:33:42;38.15;;;17.70;;
10410;SDS011;5251;52.112;8.606;2023-03-03T03:36:08;38.22;;;17.98;;
10410;SDS011;5251;52.112;8.606;2023-03-03T03:38:35;35.65;;;16.13;;
10410;SDS011;5251;52.112;8.606;2023-03-03T03:41:01;38.90;;;18.33;;
10410;SDS011;5251;52.112;8.606;2023-03-03T03:43:27;38.30;;;18.02;;
10410;SDS011;5251;52.112;8.606;2023-03-03T03:45:53;40.50;;;18.85;;
10410;SDS011;5251;52.112;8.606;2023-03-03T03:48:19;38.90;;;17.60;;
10410;SDS011;5251;52.112;8.606;2023-03-03T03:50:48;41.70;;;19.52;;
10410;SDS011;5251;52.112;8.606;2023-03-03T03:53:15;37.25;;;17.83;;
10410;SDS011;5251;52.112;8.606;2023-03-03T03:55:41;43.22;;;19.92;;
10410;SDS011;5251;52.112;8.606;2023-03-03T03:58:07;42.08;;;19.58;;
10410;SDS011;5251;52.112;8.606;2023-03-03T04:00:38;47.30;;;20.98;;
10410;SDS011;5251;52.112;8.606;2023-03-03T04:03:05;51.00;;;21.77;;
10410;SDS011;5251;52.112;8.606;2023-03-03T04:05:30;45.55;;;20.33;;
10410;SDS011;5251;52.112;8.606;2023-03-03T04:07:56;46.30;;;20.67;;
10410;SDS011;5251;52.112;8.606;2023-03-03T04:10:21;49.72;;;20.92;;
10410;SDS011;5251;52.112;8.606;2023-03-03T04:12:47;47.67;;;20.23;;
10410;SDS011;5251;52.112;8.606;2023-03-03T04:15:13;53.95;;;21.80;;
10410;SDS011;5251;52.112;8.606;2023-03-03T04:17:39;49.55;;;21.90;;
10410;SDS011;5251;52.112;8.606;2023-03-03T04:20:05;54.80;;;23.20;;
10410;SDS011;5251;52.112;8.606;2023-03-03T04:22:32;53.90;;;22.23;;
10410;SDS011;5251;52.112;8.606;2023-03-03T04:25:00;52.78;;;21.98;;
10410;SDS011;5251;52.112;8.606;2023-03-03T04:27:29;48.13;;;21.23;;
10410;SDS011;5251;52.112;8.606;2023-03-03T04:29:59;58.67;;;22.30;;
10410;SDS011;5251;52.112;8.606;2023-03-03T04:32:25;49.60;;;20.77;;
10410;SDS011;5251;52.112;8.606;2023-03-03T04:34:50;48.47;;;21.70;;
10410;SDS011;5251;52.112;8.606;2023-03-03T04:37:16;51.90;;;21.73;;
10410;SDS011;5251;52.112;8.606;2023-03-03T04:39:42;50.25;;;22.27;;
10410;SDS011;5251;52.112;8.606;2023-03-03T04:42:07;47.85;;;20.55;;
10410;SDS011;5251;52.112;8.606;2023-03-03T04:44:33;51.20;;;21.60;;
10410;SDS011;5251;52.112;8.606;2023-03-03T04:46:59;54.78;;;22.00;;
10410;SDS011;5251;52.112;8.606;2023-03-03T04:49:24;52.08;;;22.05;;
10410;SDS011;5251;52.112;8.606;2023-03-03T04:51:50;55.60;;;22.83;;
10410;SDS011;5251;52.112;8.606;2023-03-03T04:54:15;52.60;;;22.63;;
10410;SDS011;5251;52.112;8.606;2023-03-03T04:56:41;49.17;;;21.98;;
10410;SDS011;5251;52.112;8.606;2023-03-03T04:59:07;56.63;;;23.02;;
10410;SDS011;5251;52.112;8.606;2023-03-03T05:01:32;51.35;;;20.65;;
10410;SDS011;5251;52.112;8.606;2023-03-03T05:03:58;52.78;;;22.35;;
10410;SDS011;5251;52.112;8.606;2023-03-03T05:06:23;62.97;;;23.58;;
10410;SDS011;5251;52.112;8.606;2023-03-03T05:08:49;53.25;;;22.90;;
10410;SDS011;5251;52.112;8.606;2023-03-03T05:11:14;58.30;;;23.48;;
10410;SDS011;5251;52.112;8.606;2023-03-03T05:13:40;52.97;;;21.77;;
10410;SDS011;5251;52.112;8.606;2023-03-03T05:16:06;56.50;;;22.98;;
10410;SDS011;5251;52.112;8.606;2023-03-03T05:18:32;57.85;;;23.45;;
10410;SDS011;5251;52.112;8.606;2023-03-03T05:20:57;55.75;;;23.10;;
10410;SDS011;5251;52.112;8.606;2023-03-03T05:23:23;50.22;;;22.05;;
10410;SDS011;5251;52.112;8.606;2023-03-03T05:25:49;53.38;;;21.92;;
10410;SDS011;5251;52.112;8.606;2023-03-03T05:28:16;50.20;;;21.25;;
10410;SDS011;5251;52.112;8.606;2023-03-03T05:30:42;55.03;;;21.52;;
10410;SDS011;5251;52.112;8.606;2023-03-03T05:33:09;50.95;;;21.80;;
10410;SDS011;5251;52.112;8.606;2023-03-03T05:35:38;52.40;;;21.38;;
10410;SDS011;5251;52.112;8.606;2023-03-03T05:38:03;45.35;;;19.65;;
10410;SDS011;5251;52.112;8.606;2023-03-03T05:40:29;50.75;;;21.10;;
10410;SDS011;5251;52.112;8.606;2023-03-03T05:42:54;53.53;;;21.48;;
10410;SDS011;5251;52.112;8.606;2023-03-03T05:45:20;48.80;;;20.55;;
10410;SDS011;5251;52.112;8.606;2023-03-03T05:47:48;51.42;;;21.20;;
10410;SDS011;5251;52.112;8.606;2023-03-03T05:50:14;46.95;;;19.95;;
10410;SDS011;5251;52.112;8.606;2023-03-03T05:52:40;46.58;;;20.95;;
10410;SDS011;5251;52.112;8.606;2023-03-03T05:55:06;47.50;;;19.75;;
10410;SDS011;5251;52.112;8.606;2023-03-03T05:57:32;48.17;;;20.40;;
10410;SDS011;5251;52.112;8.606;2023-03-03T05:59:57;46.88;;;19.17;;
10410;SDS011;5251;52.112;8.606;2023-03-03T06:02:23;48.65;;;19.98;;
10410;SDS011;5251;52.112;8.606;2023-03-03T06:04:49;48.10;;;20.30;;
10410;SDS011;5251;52.112;8.606;2023-03-03T06:07:14;48.28;;;20.15;;
10410;SDS011;5251;52.112;8.606;2023-03-03T06:09:40;45.65;;;19.85;;
10410;SDS011;5251;52.112;8.606;2023-03-03T06:12:05;47.83;;;21.00;;
10410;SDS011;5251;52.112;8.606;2023-03-03T06:14:31;43.80;;;18.40;;
10410;SDS011;5251;52.112;8.606;2023-03-03T06:16:57;46.38;;;19.77;;
10410;SDS011;5251;52.112;8.606;2023-03-03T06:19:22;47.13;;;19.60;;
10410;SDS011;5251;52.112;8.606;2023-03-03T06:21:48;45.65;;;19.80;;
10410;SDS011;5251;52.112;8.606;2023-03-03T06:24:14;45.88;;;20.38;;
10410;SDS011;5251;52.112;8.606;2023-03-03T06:26:40;49.47;;;21.50;;
10410;SDS011;5251;52.112;8.606;2023-03-03T06:29:06;50.30;;;20.00;;
10410;SDS011;5251;52.112;8.606;2023-03-03T06:31:31;50.60;;;21.58;;
10410;SDS011;5251;52.112;8.606;2023-03-03T06:33:57;52.72;;;21.92;;
10410;SDS011;5251;52.112;8.606;2023-03-03T06:36:23;49.50;;;21.40;;
10410;SDS011;5251;52.112;8.606;2023-03-03T06:38:49;48.78;;;21.15;;
10410;SDS011;5251;52.112;8.606;2023-03-03T06:41:15;50.25;;;21.85;;
10410;SDS011;5251;52.112;8.606;2023-03-03T06:43:41;48.60;;;20.95;;
10410;SDS011;5251;52.112;8.606;2023-03-03T06:46:07;49.50;;;20.95;;
10410;SDS011;5251;52.112;8.606;2023-03-03T06:48:33;50.13;;;22.90;;
10410;SDS011;5251;52.112;8.606;2023-03-03T06:50:59;50.50;;;23.23;;
10410;SDS011;5251;52.112;8.606;2023-03-03T06:53:26;55.08;;;22.38;;
10410;SDS011;5251;52.112;8.606;2023-03-03T06:55:55;48.38;;;20.73;;
10410;SDS011;5251;52.112;8.606;2023-03-03T06:58:22;48.92;;;21.42;;
10410;SDS011;5251;52.112;8.606;2023-03-03T07:00:59;51.60;;;21.52;;
10410;SDS011;5251;52.112;8.606;2023-03-03T07:03:27;50.20;;;21.02;;
10410;SDS011;5251;52.112;8.606;2023-03-03T07:05:57;56.45;;;23.20;;
10410;SDS011;5251;52.112;8.606;2023-03-03T07:08:23;49.85;;;22.45;;
10410;SDS011;5251;52.112;8.606;2023-03-03T07:10:49;52.50;;;22.58;;
10410;SDS011;5251;52.112;8.606;2023-03-03T07:15:44;54.20;;;22.83;;
10410;SDS011;5251;52.112;8.606;2023-03-03T07:18:54;51.92;;;22.88;;
10410;SDS011;5251;52.112;8.606;2023-03-03T07:21:18;50.03;;;21.40;;
10410;SDS011;5251;52.112;8.606;2023-03-03T07:23:46;45.88;;;20.02;;
10410;SDS011;5251;52.112;8.606;2023-03-03T07:26:15;41.58;;;18.90;;
10410;SDS011;5251;52.112;8.606;2023-03-03T07:29:29;43.10;;;20.13;;
10410;SDS011;5251;52.112;8.606;2023-03-03T07:32:14;44.70;;;20.27;;
10410;SDS011;5251;52.112;8.606;2023-03-03T07:34:49;46.70;;;19.92;;
10410;SDS011;5251;52.112;8.606;2023-03-03T07:37:19;41.67;;;18.98;;
10410;SDS011;5251;52.112;8.606;2023-03-03T07:39:52;48.08;;;19.38;;
10410;SDS011;5251;52.112;8.606;2023-03-03T07:42:22;42.92;;;18.90;;
10410;SDS011;5251;52.112;8.606;2023-03-03T07:44:58;40.30;;;18.17;;
10410;SDS011;5251;52.112;8.606;2023-03-03T07:47:26;41.50;;;18.60;;
10410;SDS011;5251;52.112;8.606;2023-03-03T07:49:55;40.28;;;18.10;;
10410;SDS011;5251;52.112;8.606;2023-03-03T07:52:26;40.55;;;18.52;;
10410;SDS011;5251;52.112;8.606;2023-03-03T07:54:54;41.53;;;18.83;;
10410;SDS011;5251;52.112;8.606;2023-03-03T07:57:22;40.90;;;18.73;;
10410;SDS011;5251;52.112;8.606;2023-03-03T07:59:52;40.10;;;18.25;;
10410;SDS011;5251;52.112;8.606;2023-03-03T08:02:42;38.08;;;18.02;;
10410;SDS011;5251;52.112;8.606;2023-03-03T08:05:21;42.67;;;17.98;;
10410;SDS011;5251;52.112;8.606;2023-03-03T08:13:18;42.67;;;19.55;;
10410;SDS011;5251;52.112;8.606;2023-03-03T08:15:49;41.88;;;18.20;;
10410;SDS011;5251;52.112;8.606;2023-03-03T08:18:18;40.35;;;17.35;;
10410;SDS011;5251;52.112;8.606;2023-03-03T08:20:56;40.35;;;17.40;;
10410;SDS011;5251;52.112;8.606;2023-03-03T08:23:23;40.22;;;18.67;;
10410;SDS011;5251;52.112;8.606;2023-03-03T08:25:50;45.50;;;20.10;;
10410;SDS011;5251;52.112;8.606;2023-03-03T08:28:16;42.13;;;18.77;;
10410;SDS011;5251;52.112;8.606;2023-03-03T08:30:43;39.88;;;18.15;;
10410;SDS011;5251;52.112;8.606;2023-03-03T08:33:10;43.83;;;18.98;;
10410;SDS011;5251;52.112;8.606;2023-03-03T08:35:36;41.55;;;19.23;;
10410;SDS011;5251;52.112;8.606;2023-03-03T08:38:02;36.90;;;17.02;;
10410;SDS011;5251;52.112;8.606;2023-03-03T08:40:29;39.35;;;18.13;;
10410;SDS011;5251;52.112;8.606;2023-03-03T08:42:55;39.70;;;18.58;;
10410;SDS011;5251;52.112;8.606;2023-03-03T08:45:22;42.00;;;18.50;;
10410;SDS011;5251;52.112;8.606;2023-03-03T08:47:48;43.78;;;19.38;;
10410;SDS011;5251;52.112;8.606;2023-03-03T08:50:14;39.05;;;17.98;;
10410;SDS011;5251;52.112;8.606;2023-03-03T08:52:40;40.80;;;18.23;;
10410;SDS011;5251;52.112;8.606;2023-03-03T08:55:06;40.58;;;17.40;;
10410;SDS011;5251;52.112;8.606;2023-03-03T08:57:32;41.47;;;19.10;;
10410;SDS011;5251;52.112;8.606;2023-03-03T08:59:58;43.25;;;19.25;;
10410;SDS011;5251;52.112;8.606;2023-03-03T09:02:23;41.47;;;18.60;;
10410;SDS011;5251;52.112;8.606;2023-03-03T09:04:49;38.90;;;18.25;;
10410;SDS011;5251;52.112;8.606;2023-03-03T09:07:14;38.10;;;18.23;;
10410;SDS011;5251;52.112;8.606;2023-03-03T09:09:40;38.10;;;18.02;;
10410;SDS011;5251;52.112;8.606;2023-03-03T09:12:13;35.20;;;17.35;;
10410;SDS011;5251;52.112;8.606;2023-03-03T09:14:41;39.13;;;18.15;;
10410;SDS011;5251;52.112;8.606;2023-03-03T09:17:29;38.28;;;17.70;;
10410;SDS011;5251;52.112;8.606;2023-03-03T09:22:55;37.50;;;17.75;;
10410;SDS011;5251;52.112;8.606;2023-03-03T09:25:25;36.53;;;17.98;;
10410;SDS011;5251;52.112;8.606;2023-03-03T09:27:56;38.70;;;18.92;;
10410;SDS011;5251;52.112;8.606;2023-03-03T09:32:50;34.90;;;16.83;;
10410;SDS011;5251;52.112;8.606;2023-03-03T09:38:39;40.15;;;18.77;;
10410;SDS011;5251;52.112;8.606;2023-03-03T09:46:13;39.85;;;19.67;;
10410;SDS011;5251;52.112;8.606;2023-03-03T09:48:53;39.53;;;18.85;;
10410;SDS011;5251;52.112;8.606;2023-03-03T09:56:29;42.00;;;20.23;;
10410;SDS011;5251;52.112;8.606;2023-03-03T09:59:43;38.53;;;19.17;;
10410;SDS011;5251;52.112;8.606;2023-03-03T10:02:09;40.45;;;20.00;;
10410;SDS011;5251;52.112;8.606;2023-03-03T10:16:15;33.13;;;16.77;;
10410;SDS011;5251;52.112;8.606;2023-03-03T10:18:44;34.38;;;16.02;;
10410;SDS011;5251;52.112;8.606;2023-03-03T10:21:24;32.92;;;16.75;;
10410;SDS011;5251;52.112;8.606;2023-03-03T10:24:26;31.60;;;15.52;;
10410;SDS011;5251;52.112;8.606;2023-03-03T10:35:14;35.35;;;18.02;;
10410;SDS011;5251;52.112;8.606;2023-03-03T10:40:46;31.23;;;17.25;;
10410;SDS011;5251;52.112;8.606;2023-03-03T10:46:19;31.67;;;15.65;;
10410;SDS011;5251;52.112;8.606;2023-03-03T11:08:38;31.25;;;16.77;;
10410;SDS011;5251;52.112;8.606;2023-03-03T11:13:54;33.38;;;18.38;;
10410;SDS011;5251;52.112;8.606;2023-03-03T11:16:56;34.53;;;17.55;;
10410;SDS011;5251;52.112;8.606;2023-03-03T11:24:45;33.15;;;16.95;;
10410;SDS011;5251;52.112;8.606;2023-03-03T11:44:32;26.83;;;15.13;;
10410;SDS011;5251;52.112;8.606;2023-03-03T11:47:16;26.60;;;14.85;;
10410;SDS011;5251;52.112;8.606;2023-03-03T11:49:46;26.05;;;14.82;;
10410;SDS011;5251;52.112;8.606;2023-03-03T12:12:07;22.63;;;13.25;;
10410;SDS011;5251;52.112;8.606;2023-03-03T12:20:37;22.05;;;13.57;;
10410;SDS011;5251;52.112;8.606;2023-03-03T12:22:35;23.58;;;13.60;;
10410;SDS011;5251;52.112;8.606;2023-03-03T12:25:22;22.50;;;13.10;;
10410;SDS011;5251;52.112;8.606;2023-03-03T12:33:49;23.85;;;13.15;;
10410;SDS011;5251;52.112;8.606;2023-03-03T12:42:23;24.30;;;13.40;;
10410;SDS011;5251;52.112;8.606;2023-03-03T12:47:39;20.80;;;12.25;;
10410;SDS011;5251;52.112;8.606;2023-03-03T13:15:02;19.65;;;11.70;;
10410;SDS011;5251;52.112;8.606;2023-03-03T13:17:40;19.20;;;12.32;;
10410;SDS011;5251;52.112;8.606;2023-03-03T13:20:23;18.80;;;11.52;;
10410;SDS011;5251;52.112;8.606;2023-03-03T13:23:04;20.17;;;11.90;;
10410;SDS011;5251;52.112;8.606;2023-03-03T13:25:48;17.55;;;10.13;;
10410;SDS011;5251;52.112;8.606;2023-03-03T13:28:30;18.00;;;11.02;;
10410;SDS011;5251;52.112;8.606;2023-03-03T13:31:21;17.15;;;10.50;;
10410;SDS011;5251;52.112;8.606;2023-03-03T13:33:55;15.38;;;9.63;;
10410;SDS011;5251;52.112;8.606;2023-03-03T13:36:24;15.38;;;9.60;;
10410;SDS011;5251;52.112;8.606;2023-03-03T13:38:56;17.02;;;10.30;;
10410;SDS011;5251;52.112;8.606;2023-03-03T13:41:47;16.38;;;9.77;;
10410;SDS011;5251;52.112;8.606;2023-03-03T13:44:23;13.60;;;8.88;;
10410;SDS011;5251;52.112;8.606;2023-03-03T13:47:05;14.90;;;9.35;;
10410;SDS011;5251;52.112;8.606;2023-03-03T13:49:42;14.82;;;9.30;;
10410;SDS011;5251;52.112;8.606;2023-03-03T13:52:14;14.10;;;8.63;;
10410;SDS011;5251;52.112;8.606;2023-03-03T13:54:59;14.93;;;9.13;;
10410;SDS011;5251;52.112;8.606;2023-03-03T13:57:50;14.95;;;9.43;;
10410;SDS011;5251;52.112;8.606;2023-03-03T14:06:21;15.15;;;9.40;;
10410;SDS011;5251;52.112;8.606;2023-03-03T14:11:25;15.77;;;9.82;;
10410;SDS011;5251;52.112;8.606;2023-03-03T14:14:00;14.85;;;9.95;;
10410;SDS011;5251;52.112;8.606;2023-03-03T14:17:03;14.88;;;9.48;;
10410;SDS011;5251;52.112;8.606;2023-03-03T14:19:40;14.05;;;9.80;;
10410;SDS011;5251;52.112;8.606;2023-03-03T14:22:17;15.98;;;9.75;;
10410;SDS011;5251;52.112;8.606;2023-03-03T14:24:59;14.43;;;9.23;;
10410;SDS011;5251;52.112;8.606;2023-03-03T14:28:08;15.25;;;9.77;;
10410;SDS011;5251;52.112;8.606;2023-03-03T14:30:38;17.45;;;10.52;;
10410;SDS011;5251;52.112;8.606;2023-03-03T14:38:05;16.52;;;10.25;;
10410;SDS011;5251;52.112;8.606;2023-03-03T14:40:37;17.05;;;10.98;;
10410;SDS011;5251;52.112;8.606;2023-03-03T14:46:34;19.30;;;11.23;;
10410;SDS011;5251;52.112;8.606;2023-03-03T14:49:03;18.15;;;11.13;;
10410;SDS011;5251;52.112;8.606;2023-03-03T14:51:44;20.80;;;11.95;;
10410;SDS011;5251;52.112;8.606;2023-03-03T14:54:23;22.65;;;12.50;;
10410;SDS011;5251;52.112;8.606;2023-03-03T14:57:12;23.98;;;12.98;;
10410;SDS011;5251;52.112;8.606;2023-03-03T14:59:59;23.60;;;12.52;;
10410;SDS011;5251;52.112;8.606;2023-03-03T15:05:27;21.08;;;12.32;;
10410;SDS011;5251;52.112;8.606;2023-03-03T15:08:06;21.73;;;11.93;;
10410;SDS011;5251;52.112;8.606;2023-03-03T15:10:35;22.08;;;12.35;;
10410;SDS011;5251;52.112;8.606;2023-03-03T15:18:25;23.65;;;12.23;;
10410;SDS011;5251;52.112;8.606;2023-03-03T15:23:43;25.30;;;13.02;;
10410;SDS011;5251;52.112;8.606;2023-03-03T15:26:48;23.42;;;11.98;;
10410;SDS011;5251;52.112;8.606;2023-03-03T15:42:39;20.30;;;11.15;;
10410;SDS011;5251;52.112;8.606;2023-03-03T15:53:26;22.42;;;11.10;;
10410;SDS011;5251;52.112;8.606;2023-03-03T16:01:58;21.27;;;10.98;;
10410;SDS011;5251;52.112;8.606;2023-03-03T16:04:25;23.42;;;12.43;;
10410;SDS011;5251;52.112;8.606;2023-03-03T16:21:18;23.50;;;12.43;;
10410;SDS011;5251;52.112;8.606;2023-03-03T16:27:05;21.48;;;11.88;;
10410;SDS011;5251;52.112;8.606;2023-03-03T16:32:48;24.05;;;12.18;;
10410;SDS011;5251;52.112;8.606;2023-03-03T16:38:00;22.88;;;12.20;;
10410;SDS011;5251;52.112;8.606;2023-03-03T16:40:32;24.05;;;12.95;;
10410;SDS011;5251;52.112;8.606;2023-03-03T16:58:58;22.92;;;12.10;;
10410;SDS011;5251;52.112;8.606;2023-03-03T17:06:59;22.13;;;12.25;;
10410;SDS011;5251;52.112;8.606;2023-03-03T17:09:42;22.75;;;12.52;;
10410;SDS011;5251;52.112;8.606;2023-03-03T17:12:45;25.33;;;13.45;;
10410;SDS011;5251;52.112;8.606;2023-03-03T17:53:35;29.30;;;16.88;;
10410;SDS011;5251;52.112;8.606;2023-03-03T17:56:20;28.23;;;16.45;;
10410;SDS011;5251;52.112;8.606;2023-03-03T18:07:10;29.70;;;15.52;;
10410;SDS011;5251;52.112;8.606;2023-03-03T18:09:45;27.75;;;15.60;;
10410;SDS011;5251;52.112;8.606;2023-03-03T18:12:17;33.42;;;17.00;;
10410;SDS011;5251;52.112;8.606;2023-03-03T18:23:32;26.23;;;14.73;;
10410;SDS011;5251;52.112;8.606;2023-03-03T18:26:00;31.95;;;15.65;;
10410;SDS011;5251;52.112;8.606;2023-03-03T18:28:43;30.10;;;16.30;;
10410;SDS011;5251;52.112;8.606;2023-03-03T18:36:35;30.15;;;15.27;;
10410;SDS011;5251;52.112;8.606;2023-03-03T18:39:04;27.88;;;14.55;;
10410;SDS011;5251;52.112;8.606;2023-03-03T18:42:02;25.73;;;13.98;;
10410;SDS011;5251;52.112;8.606;2023-03-03T18:44:29;27.10;;;14.68;;
10410;SDS011;5251;52.112;8.606;2023-03-03T18:46:55;24.35;;;13.63;;
10410;SDS011;5251;52.112;8.606;2023-03-03T18:52:33;23.73;;;13.77;;
10410;SDS011;5251;52.112;8.606;2023-03-03T18:58:03;23.52;;;13.30;;
10410;SDS011;5251;52.112;8.606;2023-03-03T19:03:34;28.90;;;14.52;;
10410;SDS011;5251;52.112;8.606;2023-03-03T19:06:05;24.35;;;14.32;;
10410;SDS011;5251;52.112;8.606;2023-03-03T19:16:42;24.02;;;12.75;;
10410;SDS011;5251;52.112;8.606;2023-03-03T19:19:15;24.90;;;13.65;;
10410;SDS011;5251;52.112;8.606;2023-03-03T19:21:42;25.17;;;14.00;;
10410;SDS011;5251;52.112;8.606;2023-03-03T19:29:58;20.85;;;12.05;;
10410;SDS011;5251;52.112;8.606;2023-03-03T19:40:21;23.48;;;12.40;;
10410;SDS011;5251;52.112;8.606;2023-03-03T19:43:10;21.60;;;12.45;;
10410;SDS011;5251;52.112;8.606;2023-03-03T19:48:21;21.92;;;12.55;;
10410;SDS011;5251;52.112;8.606;2023-03-03T19:51:25;20.48;;;11.65;;
10410;SDS011;5251;52.112;8.606;2023-03-03T19:56:51;19.80;;;11.52;;
10410;SDS011;5251;52.112;8.606;2023-03-03T20:15:40;20.58;;;11.93;;
10410;SDS011;5251;52.112;8.606;2023-03-03T20:29:42;21.83;;;12.23;;
10410;SDS011;5251;52.112;8.606;2023-03-03T20:40:30;18.73;;;11.18;;
10410;SDS011;5251;52.112;8.606;2023-03-03T20:43:28;19.23;;;11.45;;
10410;SDS011;5251;52.112;8.606;2023-03-03T20:51:26;18.48;;;10.77;;
10410;SDS011;5251;52.112;8.606;2023-03-03T20:59:26;16.45;;;10.85;;
10410;SDS011;5251;52.112;8.606;2023-03-03T21:07:35;17.83;;;10.32;;
10410;SDS011;5251;52.112;8.606;2023-03-03T21:10:18;18.88;;;10.50;;
10410;SDS011;5251;52.112;8.606;2023-03-03T21:12:49;17.70;;;10.88;;
10410;SDS011;5251;52.112;8.606;2023-03-03T21:15:32;17.88;;;11.02;;
10410;SDS011;5251;52.112;8.606;2023-03-03T21:17:59;14.48;;;9.60;;
10410;SDS011;5251;52.112;8.606;2023-03-03T21:20:48;18.60;;;10.60;;
10410;SDS011;5251;52.112;8.606;2023-03-03T21:23:14;17.15;;;10.13;;
10410;SDS011;5251;52.112;8.606;2023-03-03T21:25:41;15.98;;;10.32;;
10410;SDS011;5251;52.112;8.606;2023-03-03T21:31:13;13.18;;;8.18;;
10410;SDS011;5251;52.112;8.606;2023-03-03T21:33:44;13.05;;;8.00;;
10410;SDS011;5251;52.112;8.606;2023-03-03T21:36:10;13.00;;;7.10;;
10410;SDS011;5251;52.112;8.606;2023-03-03T21:38:41;10.93;;;6.75;;
10410;SDS011;5251;52.112;8.606;2023-03-03T21:41:07;8.27;;;5.22;;
10410;SDS011;5251;52.112;8.606;2023-03-03T21:43:37;10.27;;;5.43;;
10410;SDS011;5251;52.112;8.606;2023-03-03T21:46:08;10.32;;;5.65;;
10410;SDS011;5251;52.112;8.606;2023-03-03T21:48:33;10.75;;;5.30;;
10410;SDS011;5251;52.112;8.606;2023-03-03T21:50:59;8.45;;;5.68;;
10410;SDS011;5251;52.112;8.606;2023-03-03T21:53:25;10.82;;;5.80;;
10410;SDS011;5251;52.112;8.606;2023-03-03T21:55:53;9.27;;;5.43;;
10410;SDS011;5251;52.112;8.606;2023-03-03T21:58:19;10.43;;;5.28;;
10410;SDS011;5251;52.112;8.606;2023-03-03T22:00:45;10.75;;;5.20;;
10410;SDS011;5251;52.112;8.606;2023-03-03T22:03:11;8.88;;;4.88;;
10410;SDS011;5251;52.112;8.606;2023-03-03T22:05:39;8.10;;;4.78;;
10410;SDS011;5251;52.112;8.606;2023-03-03T22:08:05;12.02;;;4.90;;
10410;SDS011;5251;52.112;8.606;2023-03-03T22:10:31;10.95;;;5.35;;
10410;SDS011;5251;52.112;8.606;2023-03-03T22:12:56;7.97;;;4.32;;